Latest Coastal Weather Observations for Swanbourne

IDW60701

Issued at 4:43 am WST Monday 23 October 2017 (issued every 10 minutes, with the page automatically refreshed every 10 minutes)

About coastal observations | Map of coastal stations | Coastal observations for WA | Marine services | Other Formats
Station Details ID: 009215 Name: SWANBOURNE Lat: -31.96 Lon: 115.76 Height: 40.96 m
Data from the previous 72 hours. | See also: Recent months at Swanbourne
Date/Time
WST
Temp
°C
Wind Pressure Rain since
9am
mm
Weather Cloud Vis
km
Sea
Height
m
Swell
Dir  Spd
kts
Gust
kts
hPa Trend Height
m
Period
s
Dir
23/04:30am 17.4 SSW 6 9 - - 0.0 - - - - - - -
23/04:00am 17.4 SW 5 7 - - 0.0 - - - - - - -
23/03:30am 17.6 SW 7 10 - - 0.0 - - - - - - -
23/03:00am 17.3 SW 5 7 - - 0.0 - - - - - - -
23/02:30am 17.2 SSW 5 8 - - 0.0 - - - - - - -
23/02:00am 17.3 SW 5 9 - - 0.0 - - - - - - -
23/01:30am 17.4 WSW 3 5 - - 0.0 - - - - - - -
23/01:00am 17.5 WSW 3 4 - - 0.0 - - - - - - -
23/12:30am 17.7 WSW 2 2 - - 0.0 - - - - - - -
23/12:00am 17.9 CALM 0 0 - - 0.0 - - - - - - -
 
Date/Time
WST
Temp
°C
Wind Pressure Rain since
9am
mm
Weather Cloud Vis
km
Sea
Height
m
Swell
Dir  Spd
kts
Gust
kts
hPa Trend Height
m
Period
s
Dir
22/11:30pm 17.8 SW 1 2 - - 0.0 - - - - - - -
22/11:00pm 18.0 WSW 2 2 - - 0.0 - - - - - - -
22/10:30pm 18.1 SSW 1 1 - - 0.0 - - - - - - -
22/10:00pm 18.1 SSW 3 3 - - 0.0 - - - - - - -
22/09:30pm 18.2 SSW 3 3 - - 0.0 - - - - - - -
22/09:00pm 18.2 S 1 3 - - 0.0 - - - - - - -
22/08:30pm 18.3 S 3 4 - - 0.0 - - - - - - -
22/08:00pm 18.4 S 2 3 - - 0.0 - - - - - - -
22/07:30pm 18.5 S 4 6 - - 0.0 - - - - - - -
22/07:00pm 18.9 SSW 6 8 - - 0.0 - - - - - - -
22/06:30pm 19.4 SSW 6 8 - - 0.0 - - - - - - -
22/06:00pm 19.9 SSW 5 8 - - 0.0 - - - - - - -
22/05:30pm 20.7 WSW 5 9 - - 0.0 - - - - - - -
22/05:00pm 21.7 W 8 13 - - 0.0 - - - - - - -
22/04:30pm 22.4 W 10 15 - - 0.0 - - - - - - -
22/04:00pm 23.2 W 8 12 - - 0.0 - - - - - - -
22/03:30pm 23.0 W 8 13 - - 0.0 - - - - - - -
22/03:00pm 23.6 W 8 11 - - 0.0 - - - - - - -
22/02:30pm 23.9 WNW 8 13 - - 0.0 - - - - - - -
22/02:00pm 23.4 WNW 10 14 - - 0.0 - - - - - - -
22/01:30pm 24.1 WNW 7 10 - - 0.0 - - - - - - -
22/01:00pm 23.9 W 10 13 - - 0.0 - - - - - - -
22/12:30pm 23.9 W 7 11 - - 0.0 - - - - - - -
22/12:00pm 24.2 W 6 8 - - 0.0 - - - - - - -
22/11:30am 24.3 WSW 5 7 - - 0.0 - - - - - - -
22/11:00am 24.1 W 7 10 - - 0.0 - - - - - - -
22/10:30am 23.5 W 6 9 - - 0.0 - - - - - - -
22/10:00am 23.0 WNW 6 9 - - 0.0 - - - - - - -
22/09:30am 24.3 E 3 6 - - 0.0 - - - - - - -
22/09:00am 23.2 E 5 9 - - 0.4 - - - - - - -
22/08:30am 23.0 E 6 10 - - 0.4 - - - - - - -
22/08:00am 21.9 SE 5 6 - - 0.4 - - - - - - -
22/07:30am 21.7 SSE 3 5 - - 0.4 - - - - - - -
22/07:00am 20.6 SSE 2 3 - - 0.4 - - - - - - -
22/06:30am 19.1 CALM 0 2 - - 0.4 - - - - - - -
22/06:00am 18.5 SW 3 4 - - 0.4 - - - - - - -
22/05:30am 18.2 SSW 4 5 - - 0.4 - - - - - - -
22/05:00am 19.0 ENE 6 9 - - 0.4 - - - - - - -
22/04:30am 19.7 NNE 4 7 - - 0.4 - - - - - - -
22/04:00am 19.8 N 6 9 - - 0.4 - - - - - - -
22/03:30am 21.3 ENE 8 17 - - 0.0 - - - - - - -
22/03:00am 21.6 ENE 15 26 - - 0.0 - - - - - - -
22/02:58am 21.6 ENE 15 26 - - 0.0 - - - - - - -
22/02:30am 21.7 ENE 14 26 - - 0.0 - - - - - - -
22/02:00am 22.0 ENE 11 21 - - 0.0 - - - - - - -
22/01:30am 22.2 ENE 13 21 - - 0.0 - - - - - - -
22/01:00am 22.4 E 13 18 - - 0.0 - - - - - - -
22/12:30am 22.9 E 15 24 - - 0.0 - - - - - - -
22/12:00am 23.9 E 13 21 - - 0.0 - - - - - - -
 
Date/Time
WST
Temp
°C
Wind Pressure Rain since
9am
mm
Weather Cloud Vis
km
Sea
Height
m
Swell
Dir  Spd
kts
Gust
kts
hPa Trend Height
m
Period
s
Dir
21/11:30pm 24.5 ENE 16 28 - - 0.0 - - - - - - -
21/11:00pm 25.6 NE 13 30 - - 0.0 - - - - - - -
21/10:57pm 25.7 NE 11 25 - - 0.0 - - - - - - -
21/10:30pm 23.8 ENE 10 16 - - 0.0 - - - - - - -
21/10:00pm 23.8 ENE 9 16 - - 0.0 - - - - - - -
21/09:30pm 25.0 ENE 12 21 - - 0.0 - - - - - - -
21/09:00pm 25.4 NNE 9 15 - - 0.0 - - - - - - -
21/08:30pm 24.9 ENE 14 23 - - 0.0 - - - - - - -
21/08:00pm 24.8 E 8 13 - - 0.0 - - - - - - -
21/07:30pm 24.7 E 6 9 - - 0.0 - - - - - - -
21/07:00pm 25.3 ENE 10 16 - - 0.0 - - - - - - -
21/06:30pm 24.6 E 9 17 - - 0.0 - - - - - - -
21/06:00pm 26.0 E 11 16 - - 0.0 - - - - - - -
21/05:30pm 26.8 E 9 13 - - 0.0 - - - - - - -
21/05:00pm 27.5 ENE 7 14 - - 0.0 - - - - - - -
21/04:30pm 28.3 ENE 9 14 - - 0.0 - - - - - - -
21/04:00pm 29.1 ENE 10 16 - - 0.0 - - - - - - -
21/03:30pm 29.1 ENE 9 17 - - 0.0 - - - - - - -
21/03:00pm 29.7 ENE 8 14 - - 0.0 - - - - - - -
21/02:30pm 29.7 ENE 5 12 - - 0.0 - - - - - - -
21/02:00pm 28.8 ENE 5 10 - - 0.0 - - - - - - -
21/01:30pm 28.3 ENE 9 17 - - 0.0 - - - - - - -
21/01:00pm 27.8 ENE 11 20 - - 0.0 - - - - - - -
21/12:30pm 26.5 E 15 23 - - 0.0 - - - - - - -
21/12:00pm 26.6 E 14 21 - - 0.0 - - - - - - -
21/11:30am 26.1 ENE 15 25 - - 0.0 - - - - - - -
21/11:00am 24.4 E 15 23 - - 0.0 - - - - - - -
21/10:30am 23.5 E 10 17 - - 0.0 - - - - - - -
21/10:00am 23.5 E 12 17 - - 0.0 - - - - - - -
21/09:30am 23.4 E 14 22 - - 0.0 - - - - - - -
21/09:00am 25.1 ENE 13 21 - - 0.0 - - - - - - -
21/08:30am 23.2 E 15 23 - - 0.0 - - - - - - -
21/08:00am 21.4 E 14 22 - - 0.0 - - - - - - -
21/07:30am 20.1 E 15 23 - - 0.0 - - - - - - -
21/07:00am 19.5 E 15 21 - - 0.0 - - - - - - -
21/06:30am 19.2 E 13 19 - - 0.0 - - - - - - -
21/06:00am 18.6 E 14 21 - - 0.0 - - - - - - -
21/05:30am 18.3 E 13 19 - - 0.0 - - - - - - -
21/05:00am 18.3 ENE 12 18 - - 0.0 - - - - - - -
21/04:30am 19.0 ENE 11 16 - - 0.0 - - - - - - -
21/04:00am 18.9 E 11 17 - - 0.0 - - - - - - -
21/03:30am 19.3 E 11 16 - - 0.0 - - - - - - -
21/03:00am 19.5 E 10 15 - - 0.0 - - - - - - -
21/02:30am 19.7 E 10 14 - - 0.0 - - - - - - -
21/02:00am 20.0 E 10 14 - - 0.0 - - - - - - -
21/01:30am 19.7 E 9 12 - - 0.0 - - - - - - -
21/01:00am 20.6 E 9 14 - - 0.0 - - - - - - -
21/12:30am 21.6 ESE 11 15 - - 0.0 - - - - - - -
21/12:00am 21.0 ESE 7 11 - - 0.0 - - - - - - -
 
Date/Time
WST
Temp
°C
Wind Pressure Rain since
9am
mm
Weather Cloud Vis
km
Sea
Height
m
Swell
Dir  Spd
kts
Gust
kts
hPa Trend Height
m
Period
s
Dir
20/11:30pm 21.0 ESE 8 11 - - 0.0 - - - - - - -
20/11:00pm 20.9 ESE 8 12 - - 0.0 - - - - - - -
20/10:30pm 20.6 ESE 8 11 - - 0.0 - - - - - - -
20/10:00pm 20.8 SE 6 9 - - 0.0 - - - - - - -
20/09:30pm 21.1 ESE 6 8 - - 0.0 - - - - - - -
20/09:00pm 21.8 ESE 6 7 - - 0.0 - - - - - - -
20/08:30pm 22.6 SE 5 6 - - 0.0 - - - - - - -
20/08:00pm 23.4 ESE 6 8 - - 0.0 - - - - - - -
20/07:30pm 24.3 ESE 5 6 - - 0.0 - - - - - - -
20/07:00pm 24.7 ESE 4 5 - - 0.0 - - - - - - -
20/06:30pm 24.5 ESE 4 5 - - 0.0 - - - - - - -
20/06:00pm 23.2 CALM 0 2 - - 0.0 - - - - - - -
20/05:30pm 23.0 SW 4 6 - - 0.0 - - - - - - -
20/05:00pm 24.9 WSW 5 8 - - 0.0 - - - - - - -
20/04:30pm 29.2 E 5 9 - - 0.0 - - - - - - -
20/04:00pm 29.3 E 7 11 - - 0.0 - - - - - - -
20/03:30pm 29.6 E 7 12 - - 0.0 - - - - - - -
20/03:00pm 29.9 ENE 6 12 - - 0.0 - - - - - - -
20/02:30pm 30.4 ENE 7 14 - - 0.0 - - - - - - -
20/02:00pm 29.7 ENE 7 12 - - 0.0 - - - - - - -
20/01:30pm 29.0 ENE 9 14 - - 0.0 - - - - - - -
20/01:00pm 29.4 E 8 15 - - 0.0 - - - - - - -
20/12:30pm 28.8 ENE 9 15 - - 0.0 - - - - - - -
20/12:00pm 28.1 ENE 10 17 - - 0.0 - - - - - - -
20/11:30am 27.9 ENE 10 18 - - 0.0 - - - - - - -
20/11:00am 27.0 ENE 10 16 - - 0.0 - - - - - - -
20/10:30am 25.8 ENE 12 18 - - 0.0 - - - - - - -
20/10:00am 25.2 ENE 12 20 - - 0.0 - - - - - - -
20/09:30am 24.0 ENE 12 22 - - 0.0 - - - - - - -
20/09:00am 22.3 ENE 14 23 - - 0.0 - - - - - - -
20/08:30am 20.9 ENE 16 23 - - 0.0 - - - - - - -
20/08:00am 19.6 ENE 15 24 - - 0.0 - - - - - - -
20/07:30am 18.0 E 13 22 - - 0.0 - - - - - - -
20/07:00am 16.6 E 13 20 - - 0.0 - - - - - - -
20/06:30am 15.9 E 14 22 - - 0.0 - - - - - - -
20/06:00am 15.3 E 15 23 - - 0.0 - - - - - - -
20/05:30am 15.0 E 15 23 - - 0.0 - - - - - - -
20/05:00am 15.3 E 12 18 - - 0.0 - - - - - - -

Other Formats:

Comma delimited format used in spreadsheet applications
http://www.bom.gov.au/fwo/IDW60701/IDW60701.94614.axf

JavaScript Object Notation format (JSON) in row-major order
http://www.bom.gov.au/fwo/IDW60701/IDW60701.94614.json